sensor_id;sensor_type;location;lat;lon;timestamp;pressure;altitude;pressure_sealevel;temperature;humidity
61682;BME280;47577;43.610;25.010;2023-05-29T00:00:17;100257.03;;;17.61;89.65
61682;BME280;47577;43.610;25.010;2023-05-29T00:02:43;100269.19;;;17.67;89.86
61682;BME280;47577;43.610;25.010;2023-05-29T00:05:13;100264.91;;;17.64;90.24
61682;BME280;47577;43.610;25.010;2023-05-29T00:07:40;100277.72;;;17.73;91.36
61682;BME280;47577;43.610;25.010;2023-05-29T00:10:08;100266.31;;;17.70;89.84
61682;BME280;47577;43.610;25.010;2023-05-29T00:12:34;100261.81;;;17.70;89.72
61682;BME280;47577;43.610;25.010;2023-05-29T00:15:00;100281.41;;;17.72;88.14
61682;BME280;47577;43.610;25.010;2023-05-29T00:17:26;100267.34;;;17.54;89.28
61682;BME280;47577;43.610;25.010;2023-05-29T00:19:53;100274.94;;;17.48;89.43
61682;BME280;47577;43.610;25.010;2023-05-29T00:22:18;100279.97;;;17.52;88.58
61682;BME280;47577;43.610;25.010;2023-05-29T00:24:44;100268.13;;;17.42;89.29
61682;BME280;47577;43.610;25.010;2023-05-29T00:27:10;100284.25;;;17.42;89.19
61682;BME280;47577;43.610;25.010;2023-05-29T00:29:38;100285.41;;;17.38;88.98
61682;BME280;47577;43.610;25.010;2023-05-29T00:32:04;100283.88;;;17.34;89.28
61682;BME280;47577;43.610;25.010;2023-05-29T00:34:31;100286.56;;;17.34;89.92
61682;BME280;47577;43.610;25.010;2023-05-29T00:36:56;100280.06;;;17.24;90.48
61682;BME280;47577;43.610;25.010;2023-05-29T00:39:22;100287.13;;;17.25;91.40
61682;BME280;47577;43.610;25.010;2023-05-29T00:41:48;100278.31;;;17.23;91.35
61682;BME280;47577;43.610;25.010;2023-05-29T00:44:19;100273.03;;;17.21;91.43
61682;BME280;47577;43.610;25.010;2023-05-29T00:46:46;100287.13;;;17.25;91.72
61682;BME280;47577;43.610;25.010;2023-05-29T00:49:14;100273.78;;;17.23;91.12
61682;BME280;47577;43.610;25.010;2023-05-29T00:51:40;100268.63;;;17.20;91.46
61682;BME280;47577;43.610;25.010;2023-05-29T00:54:07;100278.97;;;17.26;91.11
61682;BME280;47577;43.610;25.010;2023-05-29T00:56:36;100282.72;;;17.38;91.17
61682;BME280;47577;43.610;25.010;2023-05-29T00:59:01;100279.06;;;17.39;91.69
61682;BME280;47577;43.610;25.010;2023-05-29T01:01:29;100286.94;;;17.42;91.63
61682;BME280;47577;43.610;25.010;2023-05-29T01:03:57;100276.56;;;17.36;90.29
61682;BME280;47577;43.610;25.010;2023-05-29T01:06:26;100268.66;;;16.91;92.00
61682;BME280;47577;43.610;25.010;2023-05-29T01:08:52;100274.78;;;17.08;92.12
61682;BME280;47577;43.610;25.010;2023-05-29T01:14:25;100259.22;;;17.13;91.52
61682;BME280;47577;43.610;25.010;2023-05-29T01:17:11;100256.66;;;17.11;90.07
61682;BME280;47577;43.610;25.010;2023-05-29T01:20:08;100275.34;;;17.13;88.91
61682;BME280;47577;43.610;25.010;2023-05-29T01:28:14;100269.69;;;16.89;89.51
61682;BME280;47577;43.610;25.010;2023-05-29T01:30:41;100270.13;;;16.81;87.24
61682;BME280;47577;43.610;25.010;2023-05-29T01:33:08;100268.69;;;16.75;87.79
61682;BME280;47577;43.610;25.010;2023-05-29T01:35:35;100257.00;;;16.62;87.23
61682;BME280;47577;43.610;25.010;2023-05-29T01:38:01;100267.03;;;16.58;88.68
61682;BME280;47577;43.610;25.010;2023-05-29T01:40:26;100259.47;;;16.51;89.98
61682;BME280;47577;43.610;25.010;2023-05-29T01:42:52;100255.41;;;16.43;89.56
61682;BME280;47577;43.610;25.010;2023-05-29T01:45:18;100256.56;;;16.39;90.58
61682;BME280;47577;43.610;25.010;2023-05-29T01:47:44;100255.59;;;16.40;90.33
61682;BME280;47577;43.610;25.010;2023-05-29T01:50:10;100250.59;;;16.34;90.26
61682;BME280;47577;43.610;25.010;2023-05-29T01:52:38;100262.09;;;16.22;90.83
61682;BME280;47577;43.610;25.010;2023-05-29T01:55:04;100246.66;;;15.95;92.48
61682;BME280;47577;43.610;25.010;2023-05-29T01:57:30;100249.56;;;16.06;91.88
61682;BME280;47577;43.610;25.010;2023-05-29T01:59:56;100257.84;;;16.18;91.50
61682;BME280;47577;43.610;25.010;2023-05-29T02:02:22;100261.59;;;16.15;91.26
61682;BME280;47577;43.610;25.010;2023-05-29T02:04:48;100253.81;;;16.11;90.48
61682;BME280;47577;43.610;25.010;2023-05-29T02:07:14;100256.41;;;16.12;90.97
61682;BME280;47577;43.610;25.010;2023-05-29T02:09:40;100261.41;;;16.18;91.42
61682;BME280;47577;43.610;25.010;2023-05-29T02:12:06;100268.84;;;16.13;93.07
61682;BME280;47577;43.610;25.010;2023-05-29T02:14:33;100255.25;;;16.16;92.35
61682;BME280;47577;43.610;25.010;2023-05-29T02:16:59;100250.06;;;16.13;91.95
61682;BME280;47577;43.610;25.010;2023-05-29T02:19:26;100270.84;;;16.09;92.12
61682;BME280;47577;43.610;25.010;2023-05-29T02:21:53;100266.06;;;16.15;91.50
61682;BME280;47577;43.610;25.010;2023-05-29T02:24:18;100278.00;;;16.25;91.50
61682;BME280;47577;43.610;25.010;2023-05-29T02:26:47;100267.84;;;16.30;91.53
61682;BME280;47577;43.610;25.010;2023-05-29T02:29:14;100252.13;;;16.24;90.65
61682;BME280;47577;43.610;25.010;2023-05-29T02:31:40;100262.56;;;16.29;91.24
61682;BME280;47577;43.610;25.010;2023-05-29T02:34:05;100251.16;;;16.25;91.28
61682;BME280;47577;43.610;25.010;2023-05-29T02:36:31;100258.53;;;16.21;91.24
61682;BME280;47577;43.610;25.010;2023-05-29T02:38:57;100247.91;;;16.20;91.21
61682;BME280;47577;43.610;25.010;2023-05-29T02:41:23;100254.03;;;16.22;90.61
61682;BME280;47577;43.610;25.010;2023-05-29T02:43:48;100262.09;;;16.22;91.20
61682;BME280;47577;43.610;25.010;2023-05-29T02:46:14;100263.03;;;16.21;90.24
61682;BME280;47577;43.610;25.010;2023-05-29T02:48:40;100264.09;;;16.18;89.87
61682;BME280;47577;43.610;25.010;2023-05-29T02:51:05;100267.91;;;16.14;89.73
61682;BME280;47577;43.610;25.010;2023-05-29T02:53:31;100272.75;;;16.07;90.27
61682;BME280;47577;43.610;25.010;2023-05-29T02:55:57;100267.56;;;16.04;89.38
61682;BME280;47577;43.610;25.010;2023-05-29T02:58:22;100278.38;;;16.03;90.94
61682;BME280;47577;43.610;25.010;2023-05-29T03:00:48;100287.91;;;16.08;90.51
61682;BME280;47577;43.610;25.010;2023-05-29T03:03:15;100284.34;;;16.08;90.36
61682;BME280;47577;43.610;25.010;2023-05-29T03:05:41;100276.06;;;15.97;91.35
61682;BME280;47577;43.610;25.010;2023-05-29T03:08:06;100285.56;;;16.02;91.21
61682;BME280;47577;43.610;25.010;2023-05-29T03:10:32;100293.44;;;16.05;91.66
61682;BME280;47577;43.610;25.010;2023-05-29T03:12:58;100287.09;;;16.06;91.68
61682;BME280;47577;43.610;25.010;2023-05-29T03:15:23;100287.38;;;16.02;92.69
61682;BME280;47577;43.610;25.010;2023-05-29T03:17:50;100279.78;;;16.10;91.63
61682;BME280;47577;43.610;25.010;2023-05-29T03:20:16;100280.72;;;16.09;92.34
61682;BME280;47577;43.610;25.010;2023-05-29T03:22:41;100279.88;;;16.08;92.94
61682;BME280;47577;43.610;25.010;2023-05-29T03:25:07;100285.03;;;16.12;92.41
61682;BME280;47577;43.610;25.010;2023-05-29T03:27:33;100298.78;;;16.21;93.08
61682;BME280;47577;43.610;25.010;2023-05-29T03:29:59;100300.41;;;16.24;92.66
61682;BME280;47577;43.610;25.010;2023-05-29T03:32:25;100296.50;;;16.30;92.98
61682;BME280;47577;43.610;25.010;2023-05-29T03:34:51;100292.94;;;16.29;92.68
61682;BME280;47577;43.610;25.010;2023-05-29T03:37:16;100288.88;;;16.38;92.44
61682;BME280;47577;43.610;25.010;2023-05-29T03:39:42;100287.66;;;16.27;92.96
61682;BME280;47577;43.610;25.010;2023-05-29T03:42:08;100301.88;;;16.44;93.05
61682;BME280;47577;43.610;25.010;2023-05-29T03:44:33;100294.53;;;16.48;92.93
61682;BME280;47577;43.610;25.010;2023-05-29T03:46:59;100291.88;;;16.62;92.00
61682;BME280;47577;43.610;25.010;2023-05-29T03:49:25;100298.78;;;16.66;91.22
61682;BME280;47577;43.610;25.010;2023-05-29T03:51:51;100310.59;;;16.78;90.15
61682;BME280;47577;43.610;25.010;2023-05-29T03:54:16;100307.72;;;16.81;90.69
61682;BME280;47577;43.610;25.010;2023-05-29T03:56:42;100304.09;;;16.82;90.27
61682;BME280;47577;43.610;25.010;2023-05-29T03:59:08;100318.97;;;16.88;90.95
61682;BME280;47577;43.610;25.010;2023-05-29T04:01:34;100307.75;;;16.95;91.73
61682;BME280;47577;43.610;25.010;2023-05-29T04:04:01;100315.84;;;17.10;90.67
61682;BME280;47577;43.610;25.010;2023-05-29T04:06:27;100316.88;;;17.22;90.02
61682;BME280;47577;43.610;25.010;2023-05-29T04:08:53;100319.84;;;17.31;88.98
61682;BME280;47577;43.610;25.010;2023-05-29T04:11:19;100320.63;;;17.48;89.75
61682;BME280;47577;43.610;25.010;2023-05-29T04:13:48;100311.00;;;17.44;89.63
61682;BME280;47577;43.610;25.010;2023-05-29T04:16:14;100314.47;;;17.46;89.67
61682;BME280;47577;43.610;25.010;2023-05-29T04:18:40;100318.13;;;17.59;88.74
61682;BME280;47577;43.610;25.010;2023-05-29T04:21:06;100325.47;;;17.70;88.53
61682;BME280;47577;43.610;25.010;2023-05-29T04:23:31;100330.25;;;17.79;89.20
61682;BME280;47577;43.610;25.010;2023-05-29T04:25:57;100331.78;;;17.83;88.09
61682;BME280;47577;43.610;25.010;2023-05-29T04:28:23;100334.78;;;17.93;88.45
61682;BME280;47577;43.610;25.010;2023-05-29T04:30:49;100328.47;;;18.07;88.21
61682;BME280;47577;43.610;25.010;2023-05-29T04:33:17;100326.69;;;18.20;87.52
61682;BME280;47577;43.610;25.010;2023-05-29T04:35:42;100328.00;;;18.27;86.58
61682;BME280;47577;43.610;25.010;2023-05-29T04:38:11;100322.53;;;18.29;86.83
61682;BME280;47577;43.610;25.010;2023-05-29T04:40:38;100330.44;;;18.45;85.88
61682;BME280;47577;43.610;25.010;2023-05-29T04:43:05;100331.53;;;18.55;87.13
61682;BME280;47577;43.610;25.010;2023-05-29T04:45:31;100321.50;;;18.57;86.34
61682;BME280;47577;43.610;25.010;2023-05-29T04:47:57;100320.03;;;18.66;85.46
61682;BME280;47577;43.610;25.010;2023-05-29T04:50:23;100326.91;;;18.83;85.02
61682;BME280;47577;43.610;25.010;2023-05-29T04:52:49;100324.03;;;18.86;83.68
61682;BME280;47577;43.610;25.010;2023-05-29T04:55:15;100311.81;;;18.80;83.98
61682;BME280;47577;43.610;25.010;2023-05-29T04:57:41;100327.06;;;18.94;82.99
61682;BME280;47577;43.610;25.010;2023-05-29T05:00:07;100326.22;;;18.94;82.64
61682;BME280;47577;43.610;25.010;2023-05-29T05:02:41;100326.09;;;19.08;82.46
61682;BME280;47577;43.610;25.010;2023-05-29T05:05:07;100336.44;;;19.14;80.76
61682;BME280;47577;43.610;25.010;2023-05-29T05:07:33;100335.78;;;19.24;79.85
61682;BME280;47577;43.610;25.010;2023-05-29T05:09:59;100332.78;;;19.15;79.63
61682;BME280;47577;43.610;25.010;2023-05-29T05:12:25;100337.53;;;19.25;77.98
61682;BME280;47577;43.610;25.010;2023-05-29T05:14:50;100337.53;;;19.25;78.77
61682;BME280;47577;43.610;25.010;2023-05-29T05:17:16;100339.53;;;19.34;78.43
61682;BME280;47577;43.610;25.010;2023-05-29T05:19:42;100344.28;;;19.43;78.85
61682;BME280;47577;43.610;25.010;2023-05-29T05:22:08;100334.91;;;19.49;78.33
61682;BME280;47577;43.610;25.010;2023-05-29T05:24:33;100331.53;;;19.45;78.13
61682;BME280;47577;43.610;25.010;2023-05-29T05:27:00;100346.22;;;19.54;76.67
61682;BME280;47577;43.610;25.010;2023-05-29T05:29:26;100341.16;;;19.49;77.08
61682;BME280;47577;43.610;25.010;2023-05-29T05:31:51;100345.44;;;19.65;75.83
61682;BME280;47577;43.610;25.010;2023-05-29T05:34:17;100341.75;;;19.79;75.00
61682;BME280;47577;43.610;25.010;2023-05-29T05:36:42;100342.03;;;19.87;74.92
61682;BME280;47577;43.610;25.010;2023-05-29T05:39:08;100348.00;;;19.79;78.55
61682;BME280;47577;43.610;25.010;2023-05-29T05:41:34;100338.94;;;19.80;78.30
61682;BME280;47577;43.610;25.010;2023-05-29T05:43:59;100343.38;;;19.68;79.09
61682;BME280;47577;43.610;25.010;2023-05-29T05:46:25;100345.56;;;19.76;78.55
61682;BME280;47577;43.610;25.010;2023-05-29T05:48:51;100341.53;;;19.82;76.99
61682;BME280;47577;43.610;25.010;2023-05-29T05:51:17;100340.25;;;19.75;77.33
61682;BME280;47577;43.610;25.010;2023-05-29T05:53:43;100341.19;;;19.86;77.15
61682;BME280;47577;43.610;25.010;2023-05-29T05:56:09;100345.16;;;19.94;75.61
61682;BME280;47577;43.610;25.010;2023-05-29T05:58:34;100356.22;;;20.02;77.48
61682;BME280;47577;43.610;25.010;2023-05-29T06:01:00;100360.34;;;20.07;76.48
61682;BME280;47577;43.610;25.010;2023-05-29T06:03:26;100348.94;;;19.91;76.21
61682;BME280;47577;43.610;25.010;2023-05-29T06:05:52;100363.66;;;20.11;76.58
61682;BME280;47577;43.610;25.010;2023-05-29T06:08:19;100357.28;;;20.12;75.15
61682;BME280;47577;43.610;25.010;2023-05-29T06:10:45;100346.84;;;20.07;74.72
61682;BME280;47577;43.610;25.010;2023-05-29T06:13:11;100370.13;;;20.33;75.27
61682;BME280;47577;43.610;25.010;2023-05-29T06:15:37;100362.91;;;20.33;76.10
61682;BME280;47577;43.610;25.010;2023-05-29T06:18:04;100364.66;;;20.45;75.45
61682;BME280;47577;43.610;25.010;2023-05-29T06:20:30;100368.78;;;20.27;75.20
61682;BME280;47577;43.610;25.010;2023-05-29T06:22:56;100363.31;;;20.40;75.24
61682;BME280;47577;43.610;25.010;2023-05-29T06:25:21;100367.75;;;20.41;74.68
61682;BME280;47577;43.610;25.010;2023-05-29T06:27:47;100354.16;;;20.54;78.25
61682;BME280;47577;43.610;25.010;2023-05-29T06:30:13;100374.06;;;20.88;76.42
61682;BME280;47577;43.610;25.010;2023-05-29T06:32:39;100370.13;;;20.92;74.01
61682;BME280;47577;43.610;25.010;2023-05-29T06:35:05;100376.28;;;20.83;72.39
61682;BME280;47577;43.610;25.010;2023-05-29T06:37:31;100360.66;;;20.51;74.09
61682;BME280;47577;43.610;25.010;2023-05-29T06:39:57;100375.28;;;20.60;74.44
61682;BME280;47577;43.610;25.010;2023-05-29T06:42:23;100359.06;;;20.84;74.73
61682;BME280;47577;43.610;25.010;2023-05-29T06:44:48;100358.25;;;21.06;73.40
61682;BME280;47577;43.610;25.010;2023-05-29T06:47:14;100361.81;;;21.07;71.41
61682;BME280;47577;43.610;25.010;2023-05-29T06:49:39;100354.19;;;21.00;70.91
61682;BME280;47577;43.610;25.010;2023-05-29T06:52:05;100354.94;;;21.03;73.85
61682;BME280;47577;43.610;25.010;2023-05-29T06:54:31;100358.34;;;20.82;70.88
61682;BME280;47577;43.610;25.010;2023-05-29T06:56:56;100352.22;;;20.56;73.03
61682;BME280;47577;43.610;25.010;2023-05-29T06:59:22;100361.63;;;20.74;74.00
61682;BME280;47577;43.610;25.010;2023-05-29T07:01:48;100357.88;;;20.88;72.92
61682;BME280;47577;43.610;25.010;2023-05-29T07:04:13;100359.81;;;20.97;72.03
61682;BME280;47577;43.610;25.010;2023-05-29T07:06:39;100357.66;;;21.03;72.65
61682;BME280;47577;43.610;25.010;2023-05-29T07:09:04;100363.94;;;21.14;72.24
61682;BME280;47577;43.610;25.010;2023-05-29T07:11:30;100376.81;;;20.99;71.52
61682;BME280;47577;43.610;25.010;2023-05-29T07:13:56;100359.81;;;20.97;72.94
61682;BME280;47577;43.610;25.010;2023-05-29T07:16:21;100354.94;;;21.03;73.04
61682;BME280;47577;43.610;25.010;2023-05-29T07:18:47;100358.88;;;21.10;71.76
61682;BME280;47577;43.610;25.010;2023-05-29T07:21:13;100361.22;;;21.03;73.32
61682;BME280;47577;43.610;25.010;2023-05-29T07:23:39;100371.16;;;21.03;71.62
61682;BME280;47577;43.610;25.010;2023-05-29T07:26:05;100359.22;;;20.94;72.69
61682;BME280;47577;43.610;25.010;2023-05-29T07:28:31;100370.63;;;20.97;72.00
61682;BME280;47577;43.610;25.010;2023-05-29T07:30:56;100364.75;;;21.04;71.68
61682;BME280;47577;43.610;25.010;2023-05-29T07:33:22;100358.97;;;20.97;71.25
61682;BME280;47577;43.610;25.010;2023-05-29T07:35:48;100358.38;;;21.05;71.99
61682;BME280;47577;43.610;25.010;2023-05-29T07:38:13;100364.72;;;20.81;74.20
61682;BME280;47577;43.610;25.010;2023-05-29T07:40:39;100363.78;;;21.05;72.06
61682;BME280;47577;43.610;25.010;2023-05-29T07:43:05;100367.84;;;21.10;72.97
61682;BME280;47577;43.610;25.010;2023-05-29T07:45:30;100372.16;;;21.13;77.91
61682;BME280;47577;43.610;25.010;2023-05-29T07:47:56;100374.50;;;21.17;76.78
61682;BME280;47577;43.610;25.010;2023-05-29T07:50:21;100374.63;;;21.27;76.56
61682;BME280;47577;43.610;25.010;2023-05-29T07:52:47;100370.06;;;21.16;77.11
61682;BME280;47577;43.610;25.010;2023-05-29T07:55:13;100372.19;;;21.35;76.46
61682;BME280;47577;43.610;25.010;2023-05-29T07:57:38;100382.63;;;21.40;72.06
61682;BME280;47577;43.610;25.010;2023-05-29T08:00:05;100376.09;;;21.43;72.19
61682;BME280;47577;43.610;25.010;2023-05-29T08:02:31;100375.66;;;21.60;72.77
61682;BME280;47577;43.610;25.010;2023-05-29T08:04:56;100365.06;;;21.57;71.81
61682;BME280;47577;43.610;25.010;2023-05-29T08:07:22;100387.19;;;21.85;70.40
61682;BME280;47577;43.610;25.010;2023-05-29T08:09:48;100375.69;;;22.15;69.42
61682;BME280;47577;43.610;25.010;2023-05-29T08:12:14;100375.44;;;22.30;70.07
61682;BME280;47577;43.610;25.010;2023-05-29T08:14:39;100364.81;;;22.38;71.77
61682;BME280;47577;43.610;25.010;2023-05-29T08:17:05;100375.53;;;22.39;68.75
61682;BME280;47577;43.610;25.010;2023-05-29T08:19:31;100373.91;;;22.37;65.02
61682;BME280;47577;43.610;25.010;2023-05-29T08:21:57;100362.91;;;22.50;68.93
61682;BME280;47577;43.610;25.010;2023-05-29T08:24:22;100364.59;;;22.62;67.91
61682;BME280;47577;43.610;25.010;2023-05-29T08:26:48;100373.72;;;22.82;68.02
61682;BME280;47577;43.610;25.010;2023-05-29T08:29:14;100380.66;;;22.75;66.07
61682;BME280;47577;43.610;25.010;2023-05-29T08:31:39;100383.69;;;22.60;65.89
61682;BME280;47577;43.610;25.010;2023-05-29T08:34:05;100377.75;;;22.67;67.87
61682;BME280;47577;43.610;25.010;2023-05-29T08:36:32;100378.22;;;22.72;66.63
61682;BME280;47577;43.610;25.010;2023-05-29T08:38:58;100380.38;;;22.57;67.27
61682;BME280;47577;43.610;25.010;2023-05-29T08:41:51;100383.78;;;22.38;66.18
61682;BME280;47577;43.610;25.010;2023-05-29T08:44:22;100379.63;;;22.34;65.51
61682;BME280;47577;43.610;25.010;2023-05-29T08:47:00;100372.56;;;22.42;68.56
61682;BME280;47577;43.610;25.010;2023-05-29T08:49:29;100375.81;;;22.57;68.51
61682;BME280;47577;43.610;25.010;2023-05-29T08:52:04;100389.50;;;22.56;66.61
61682;BME280;47577;43.610;25.010;2023-05-29T08:54:33;100368.41;;;22.59;67.86
61682;BME280;47577;43.610;25.010;2023-05-29T08:57:00;100375.81;;;22.57;65.21
61682;BME280;47577;43.610;25.010;2023-05-29T08:59:27;100368.81;;;22.55;67.52
61682;BME280;47577;43.610;25.010;2023-05-29T09:01:55;100371.47;;;22.66;67.62
61682;BME280;47577;43.610;25.010;2023-05-29T09:04:21;100363.06;;;22.69;68.78
61682;BME280;47577;43.610;25.010;2023-05-29T09:06:49;100365.44;;;22.83;67.38
61682;BME280;47577;43.610;25.010;2023-05-29T09:09:15;100365.53;;;22.93;67.02
61682;BME280;47577;43.610;25.010;2023-05-29T09:11:41;100355.16;;;22.98;68.06
61682;BME280;47577;43.610;25.010;2023-05-29T09:14:36;100364.16;;;22.99;64.92
61682;BME280;47577;43.610;25.010;2023-05-29T09:17:03;100346.59;;;23.03;66.74
61682;BME280;47577;43.610;25.010;2023-05-29T09:19:29;100342.00;;;23.15;67.97
61682;BME280;47577;43.610;25.010;2023-05-29T09:22:14;100357.38;;;23.35;66.74
61682;BME280;47577;43.610;25.010;2023-05-29T09:24:41;100354.56;;;23.47;66.82
61682;BME280;47577;43.610;25.010;2023-05-29T09:27:08;100346.19;;;23.60;65.22
61682;BME280;47577;43.610;25.010;2023-05-29T09:29:38;100336.22;;;23.60;64.34
61682;BME280;47577;43.610;25.010;2023-05-29T09:32:14;100339.81;;;23.70;65.32
61682;BME280;47577;43.610;25.010;2023-05-29T09:34:41;100331.94;;;23.67;64.12
61682;BME280;47577;43.610;25.010;2023-05-29T09:37:08;100326.13;;;23.82;64.39
61682;BME280;47577;43.610;25.010;2023-05-29T09:39:50;100330.78;;;24.01;65.94
61682;BME280;47577;43.610;25.010;2023-05-29T09:42:19;100325.22;;;24.12;63.90
61682;BME280;47577;43.610;25.010;2023-05-29T09:44:48;100314.50;;;24.11;63.49
61682;BME280;47577;43.610;25.010;2023-05-29T09:47:17;100317.78;;;24.24;64.19
61682;BME280;47577;43.610;25.010;2023-05-29T09:49:43;100314.50;;;24.11;60.57
61682;BME280;47577;43.610;25.010;2023-05-29T09:52:13;100316.97;;;23.73;66.24
61682;BME280;47577;43.610;25.010;2023-05-29T09:54:43;100318.06;;;23.61;72.55
61682;BME280;47577;43.610;25.010;2023-05-29T09:57:16;100315.56;;;23.38;69.74
61682;BME280;47577;43.610;25.010;2023-05-29T09:59:46;100318.78;;;23.22;70.87
61682;BME280;47577;43.610;25.010;2023-05-29T10:02:16;100321.88;;;23.17;71.34
61682;BME280;47577;43.610;25.010;2023-05-29T10:04:43;100315.34;;;22.99;71.89
61682;BME280;47577;43.610;25.010;2023-05-29T10:07:27;100314.63;;;22.97;71.56
61682;BME280;47577;43.610;25.010;2023-05-29T10:09:59;100317.41;;;23.07;71.67
61682;BME280;47577;43.610;25.010;2023-05-29T10:12:27;100330.75;;;22.98;72.75
61682;BME280;47577;43.610;25.010;2023-05-29T10:14:56;100325.34;;;22.77;74.05
61682;BME280;47577;43.610;25.010;2023-05-29T10:17:28;100321.25;;;22.62;75.28
61682;BME280;47577;43.610;25.010;2023-05-29T10:19:57;100310.84;;;22.46;78.87
61682;BME280;47577;43.610;25.010;2023-05-29T10:22:25;100316.56;;;22.32;78.99
61682;BME280;47577;43.610;25.010;2023-05-29T10:24:52;100310.44;;;22.30;78.45
61682;BME280;47577;43.610;25.010;2023-05-29T10:27:18;100310.91;;;22.23;79.48
61682;BME280;47577;43.610;25.010;2023-05-29T10:32:29;100305.53;;;21.80;79.52
61682;BME280;47577;43.610;25.010;2023-05-29T10:38:12;100284.66;;;22.03;82.46
61682;BME280;47577;43.610;25.010;2023-05-29T10:40:44;100278.06;;;21.96;79.01
61682;BME280;47577;43.610;25.010;2023-05-29T10:43:33;100283.22;;;21.99;79.18
61682;BME280;47577;43.610;25.010;2023-05-29T10:46:01;100287.38;;;22.35;85.16
61682;BME280;47577;43.610;25.010;2023-05-29T10:50:55;100271.75;;;22.06;78.60
61682;BME280;47577;43.610;25.010;2023-05-29T10:53:30;100272.66;;;22.49;81.05
61682;BME280;47577;43.610;25.010;2023-05-29T10:55:56;100263.16;;;22.55;77.53
61682;BME280;47577;43.610;25.010;2023-05-29T10:58:25;100255.94;;;22.86;80.26
61682;BME280;47577;43.610;25.010;2023-05-29T11:00:52;100260.34;;;23.08;77.37
61682;BME280;47577;43.610;25.010;2023-05-29T11:03:30;100253.38;;;23.15;72.41
61682;BME280;47577;43.610;25.010;2023-05-29T11:06:01;100254.84;;;23.20;68.87
61682;BME280;47577;43.610;25.010;2023-05-29T11:09:03;100266.19;;;23.44;72.83
61682;BME280;47577;43.610;25.010;2023-05-29T11:11:33;100254.81;;;23.60;69.07
61682;BME280;47577;43.610;25.010;2023-05-29T11:14:05;100250.31;;;23.40;69.51
61682;BME280;47577;43.610;25.010;2023-05-29T11:18:59;100243.72;;;24.22;70.70
61682;BME280;47577;43.610;25.010;2023-05-29T11:23:53;100241.78;;;24.81;70.34
61682;BME280;47577;43.610;25.010;2023-05-29T11:26:21;100242.53;;;25.11;68.65
61682;BME280;47577;43.610;25.010;2023-05-29T11:28:48;100245.81;;;25.14;67.70
61682;BME280;47577;43.610;25.010;2023-05-29T11:31:15;100231.63;;;25.21;64.63
61682;BME280;47577;43.610;25.010;2023-05-29T11:33:47;100235.91;;;25.51;66.88
61682;BME280;47577;43.610;25.010;2023-05-29T11:36:14;100231.19;;;25.53;64.35
61682;BME280;47577;43.610;25.010;2023-05-29T11:38:40;100220.31;;;25.71;65.97
61682;BME280;47577;43.610;25.010;2023-05-29T11:41:06;100214.44;;;25.48;60.69
61682;BME280;47577;43.610;25.010;2023-05-29T11:43:31;100218.75;;;25.86;63.44
61682;BME280;47577;43.610;25.010;2023-05-29T11:45:58;100221.81;;;26.19;66.25
61682;BME280;47577;43.610;25.010;2023-05-29T11:48:23;100214.19;;;26.49;63.32
61682;BME280;47577;43.610;25.010;2023-05-29T11:50:49;100215.75;;;26.52;59.87
61682;BME280;47577;43.610;25.010;2023-05-29T11:53:15;100208.84;;;26.39;58.95
61682;BME280;47577;43.610;25.010;2023-05-29T11:55:41;100208.44;;;26.08;58.45
61682;BME280;47577;43.610;25.010;2023-05-29T11:58:07;100201.41;;;25.87;60.77
61682;BME280;47577;43.610;25.010;2023-05-29T12:00:35;100198.00;;;26.03;61.44
61682;BME280;47577;43.610;25.010;2023-05-29T12:03:02;100191.47;;;25.96;60.01
61682;BME280;47577;43.610;25.010;2023-05-29T12:05:52;100209.72;;;25.86;60.30
61682;BME280;47577;43.610;25.010;2023-05-29T12:08:24;100208.84;;;25.49;61.26
61682;BME280;47577;43.610;25.010;2023-05-29T12:10:51;100222.44;;;25.22;59.14
61682;BME280;47577;43.610;25.010;2023-05-29T12:13:19;100219.94;;;25.00;61.37
61682;BME280;47577;43.610;25.010;2023-05-29T12:15:47;100215.72;;;24.88;59.93
61682;BME280;47577;43.610;25.010;2023-05-29T12:18:14;100201.78;;;24.44;61.71
61682;BME280;47577;43.610;25.010;2023-05-29T12:20:40;100207.38;;;24.42;60.58
61682;BME280;47577;43.610;25.010;2023-05-29T12:23:06;100200.41;;;24.30;60.57
61682;BME280;47577;43.610;25.010;2023-05-29T12:25:34;100205.41;;;24.35;61.10
61682;BME280;47577;43.610;25.010;2023-05-29T12:28:02;100203.00;;;24.22;60.42
61682;BME280;47577;43.610;25.010;2023-05-29T12:30:28;100202.72;;;24.05;61.98
61682;BME280;47577;43.610;25.010;2023-05-29T12:32:53;100200.59;;;23.89;63.41
61682;BME280;47577;43.610;25.010;2023-05-29T12:35:20;100217.81;;;23.79;63.49
61682;BME280;47577;43.610;25.010;2023-05-29T12:37:53;100214.81;;;23.62;65.00
61682;BME280;47577;43.610;25.010;2023-05-29T12:40:24;100215.78;;;23.51;67.61
61682;BME280;47577;43.610;25.010;2023-05-29T12:42:58;100215.91;;;23.40;67.99
61682;BME280;47577;43.610;25.010;2023-05-29T12:45:25;100196.78;;;23.51;70.52
61682;BME280;47577;43.610;25.010;2023-05-29T12:47:53;100201.09;;;23.44;72.51
61682;BME280;47577;43.610;25.010;2023-05-29T12:50:24;100182.09;;;23.54;72.39
61682;BME280;47577;43.610;25.010;2023-05-29T12:55:20;100189.34;;;23.34;76.21
61682;BME280;47577;43.610;25.010;2023-05-29T12:57:46;100204.47;;;23.36;73.09
61682;BME280;47577;43.610;25.010;2023-05-29T13:00:13;100214.22;;;23.39;73.23
61682;BME280;47577;43.610;25.010;2023-05-29T13:02:39;100215.75;;;23.32;72.84
61682;BME280;47577;43.610;25.010;2023-05-29T13:05:06;100225.59;;;23.33;72.54